Time;durP1;ratioP1;P1;durP2;ratioP2;P2;SDS_P1;SDS_P2;PMS_P1;PMS_P2;Temp;Humidity;BMP_temperature;BMP_pressure;BME280_temperature;BME280_humidity;BME280_pressure;Samples;Min_cycle;Max_cycle;Signal;HPM_P1;HPM_P2
2022/06/12 00:02:00;;;;;;;;;21.00;21.00;24.90;54.80;;;;;;5101121;28;8795;-77
2022/06/12 00:04:26;;;;;;;;;19.33;19.33;24.40;55.00;;;;;;5101021;28;8736;-78
2022/06/12 00:06:52;;;;;;;;;17.67;17.67;24.70;55.40;;;;;;5101158;28;8744;-75
2022/06/12 00:09:19;;;;;;;;;18.33;18.33;24.90;54.70;;;;;;5100968;28;8771;-76
2022/06/12 00:11:45;;;;;;;;;17.33;17.33;24.90;54.50;;;;;;5101136;28;8756;-75
2022/06/12 00:14:15;;;;;;;;;16.33;16.33;25.00;54.10;;;;;;5101248;28;8743;-77
2022/06/12 00:16:43;;;;;;;;;15.67;15.67;24.70;55.00;;;;;;5101000;28;8771;-76
2022/06/12 00:19:09;;;;;;;;;19.33;19.33;24.70;55.50;;;;;;5101380;28;8736;-75
2022/06/12 00:21:36;;;;;;;;;16.67;16.67;24.80;54.60;;;;;;5100908;28;8903;-74
2022/06/12 00:24:07;;;;;;;;;19.67;19.67;24.50;56.70;;;;;;5100930;28;8756;-75
2022/06/12 00:26:43;;;;;;;;;14.33;14.33;24.20;56.30;;;;;;5100978;28;8837;-76
2022/06/12 00:29:13;;;;;;;;;15.33;15.33;24.00;57.40;;;;;;5100958;28;8835;-75
2022/06/12 00:31:42;;;;;;;;;18.67;18.67;23.90;57.50;;;;;;5100840;28;8898;-74
2022/06/12 00:34:09;;;;;;;;;15.00;15.00;23.90;56.60;;;;;;5100958;28;8795;-75
2022/06/12 00:36:36;;;;;;;;;19.67;19.67;23.80;57.60;;;;;;5079455;28;8744;-76
2022/06/12 00:39:03;;;;;;;;;17.00;17.00;23.50;58.40;;;;;;5097984;28;8752;-77
2022/06/12 00:41:29;;;;;;;;;16.67;16.67;23.30;58.90;;;;;;5097595;28;8807;-77
2022/06/12 00:43:56;;;;;;;;;18.00;18.00;23.60;58.40;;;;;;5097487;28;8768;-74
2022/06/12 00:46:37;;;;;;;;;21.33;21.33;23.60;57.50;;;;;;5097321;28;8752;-75
2022/06/12 00:49:29;;;;;;;;;22.00;22.00;23.80;57.10;;;;;;5097939;28;9467;-74
2022/06/12 00:52:29;;;;;;;;;19.00;19.00;24.00;56.70;;;;;;5097080;28;8755;-75
2022/06/12 00:55:05;;;;;;;;;20.67;20.67;24.10;56.20;;;;;;5097106;28;8771;-76
2022/06/12 00:57:31;;;;;;;;;20.67;20.67;23.90;56.50;;;;;;5097276;28;8826;-76
2022/06/12 01:00:01;;;;;;;;;21.33;21.33;24.00;56.60;;;;;;5096930;28;8878;-77
2022/06/12 01:02:31;;;;;;;;;19.67;19.67;24.00;56.20;;;;;;5097081;28;8880;-74
2022/06/12 01:07:48;;;;;;;;;15.00;15.00;24.20;55.90;;;;;;5096844;28;8752;-76
2022/06/12 01:10:16;;;;;;;;;17.33;17.33;24.10;55.60;;;;;;5096988;28;9526;-75
2022/06/12 01:12:48;;;;;;;;;18.00;18.00;23.80;56.70;;;;;;5096747;28;8771;-75
2022/06/12 01:15:19;;;;;;;;;16.33;16.33;23.90;56.30;;;;;;5096965;28;8756;-75
2022/06/12 01:17:47;;;;;;;;;20.00;20.00;23.90;56.10;;;;;;5096434;28;8795;-75
2022/06/12 01:20:17;;;;;;;;;22.33;22.33;24.00;56.20;;;;;;5079040;28;8757;-76
2022/06/12 01:23:01;;;;;;;;;20.33;20.33;23.90;56.10;;;;;;5096557;28;8830;-75
2022/06/12 01:25:32;;;;;;;;;19.33;19.33;23.70;56.90;;;;;;5096837;28;8798;-75
2022/06/12 01:28:23;;;;;;;;;19.33;19.33;23.40;57.50;;;;;;5096602;28;8818;-76
2022/06/12 01:31:17;;;;;;;;;20.33;20.33;23.30;58.00;;;;;;5096625;28;8768;-76
2022/06/12 01:33:59;;;;;;;;;26.00;26.00;23.30;57.50;;;;;;5096395;28;8740;-77
2022/06/12 01:36:31;;;;;;;;;23.00;23.00;23.50;57.60;;;;;;5096354;28;8748;-76
2022/06/12 01:39:15;;;;;;;;;19.00;19.00;23.40;57.40;;;;;;5096421;28;9230;-74
2022/06/12 01:41:46;;;;;;;;;16.67;16.67;23.60;57.50;;;;;;5096286;28;8807;-76
2022/06/12 01:44:27;;;;;;;;;19.00;19.00;23.70;56.70;;;;;;5096139;28;9504;-76
2022/06/12 01:47:10;;;;;;;;;19.67;19.67;23.60;56.90;;;;;;5095023;28;9622;-76
2022/06/12 01:49:42;;;;;;;;;19.67;19.67;23.60;57.10;;;;;;5096039;28;8770;-76
2022/06/12 01:52:53;;;;;;;;;18.67;18.67;23.40;57.40;;;;;;5095861;28;8768;-76
2022/06/12 01:55:36;;;;;;;;;21.33;21.33;23.50;56.90;;;;;;5013626;28;8795;-76
2022/06/12 01:58:28;;;;;;;;;17.00;17.00;23.30;57.70;;;;;;5013665;28;8796;-76
2022/06/12 02:01:05;;;;;;;;;18.67;18.67;23.40;57.40;;;;;;5013580;28;8779;-76
2022/06/12 02:03:39;;;;;;;;;18.00;18.00;23.30;57.90;;;;;;5013749;28;8838;-76
2022/06/12 02:06:15;;;;;;;;;19.67;19.67;23.50;57.50;;;;;;5013322;28;8780;-75
2022/06/12 02:08:56;;;;;;;;;13.00;13.00;23.50;57.20;;;;;;5013652;28;8781;-73
2022/06/12 02:14:27;;;;;;;;;18.00;18.00;23.30;57.90;;;;;;5013023;28;8784;-75
2022/06/12 02:16:57;;;;;;;;;16.67;16.67;23.20;58.20;;;;;;5013105;28;8780;-76
2022/06/12 02:19:27;;;;;;;;;18.33;18.33;23.20;58.70;;;;;;5007413;28;8802;-75
2022/06/12 02:22:08;;;;;;;;;18.33;18.33;23.20;58.60;;;;;;4993496;28;8830;-77
2022/06/12 02:24:43;;;;;;;;;20.33;20.33;23.10;58.60;;;;;;5006217;28;8897;-75
2022/06/12 02:27:52;;;;;;;;;19.33;19.33;22.90;59.10;;;;;;5013137;28;8834;-75
2022/06/12 02:30:30;;;;;;;;;20.33;20.33;23.20;58.80;;;;;;4935644;29;8793;-75
2022/06/12 02:33:21;;;;;;;;;16.67;16.67;23.20;58.40;;;;;;5010673;28;8800;-75
2022/06/12 02:35:50;;;;;;;;;17.00;17.00;23.00;58.10;;;;;;5013084;28;8850;-75
2022/06/12 02:38:42;;;;;;;;;13.33;13.33;23.10;58.50;;;;;;5013071;28;8815;-74
2022/06/12 02:41:11;;;;;;;;;21.67;21.67;23.30;58.10;;;;;;4993340;28;9004;-76
2022/06/12 02:43:41;;;;;;;;;18.33;18.33;23.30;57.90;;;;;;4993341;28;8778;-75
2022/06/12 02:46:10;;;;;;;;;17.00;17.00;22.90;58.50;;;;;;4993335;28;8786;-75
2022/06/12 02:48:36;;;;;;;;;18.67;18.67;23.00;59.10;;;;;;4993304;28;8763;-74
2022/06/12 02:51:23;;;;;;;;;18.00;18.00;23.10;58.20;;;;;;4993333;28;8759;-75
2022/06/12 02:54:08;;;;;;;;;18.00;18.00;23.10;58.60;;;;;;4993461;28;9511;-74
2022/06/12 02:56:49;;;;;;;;;14.33;14.33;22.80;59.30;;;;;;4993145;28;8818;-74
2022/06/12 02:59:25;;;;;;;;;16.33;16.33;22.70;59.50;;;;;;4992784;28;9409;-74
2022/06/12 03:02:11;;;;;;;;;16.33;16.33;22.70;59.60;;;;;;4993019;28;8822;-74
2022/06/12 03:04:49;;;;;;;;;16.00;16.00;22.50;60.30;;;;;;4996963;28;9570;-73
2022/06/12 03:07:15;;;;;;;;;21.00;21.00;22.50;60.10;;;;;;5074642;28;8746;-74
2022/06/12 03:09:41;;;;;;;;;20.67;20.67;22.50;60.30;;;;;;5074283;28;8790;-74
2022/06/12 03:12:08;;;;;;;;;19.33;19.33;22.40;60.50;;;;;;5074345;28;8913;-75
2022/06/12 03:14:34;;;;;;;;;19.00;19.00;22.60;60.10;;;;;;5074561;28;8754;-74
2022/06/12 03:17:00;;;;;;;;;17.00;17.00;22.60;60.00;;;;;;5074119;28;8790;-75
2022/06/12 03:19:38;;;;;;;;;17.00;17.00;22.30;60.60;;;;;;5074278;28;8889;-75
2022/06/12 03:22:07;;;;;;;;;16.00;16.00;22.40;60.30;;;;;;5074391;28;8793;-74
2022/06/12 03:24:58;;;;;;;;;15.00;15.00;22.50;60.20;;;;;;5074271;28;8754;-74
2022/06/12 03:27:24;;;;;;;;;18.00;18.00;22.50;60.20;;;;;;5091597;28;8811;-74
2022/06/12 03:30:18;;;;;;;;;17.00;17.00;22.50;60.00;;;;;;5094349;28;8849;-75
2022/06/12 03:33:01;;;;;;;;;17.67;17.67;22.70;59.20;;;;;;5094464;28;8873;-75
2022/06/12 03:35:32;;;;;;;;;16.67;16.67;22.90;58.30;;;;;;5094409;28;8764;-75
2022/06/12 03:38:18;;;;;;;;;15.33;15.33;22.80;58.00;;;;;;5094370;28;8787;-75
2022/06/12 03:40:50;;;;;;;;;20.00;20.00;23.00;57.90;;;;;;5074390;28;8778;-74
2022/06/12 03:43:30;;;;;;;;;17.33;17.33;23.00;57.70;;;;;;5078571;28;9485;-75
2022/06/12 03:46:24;;;;;;;;;17.33;17.33;22.80;58.20;;;;;;5094239;28;8868;-75
2022/06/12 03:49:11;;;;;;;;;14.00;14.00;22.70;58.80;;;;;;5092385;28;8756;-75
2022/06/12 03:51:42;;;;;;;;;17.33;17.33;22.40;60.40;;;;;;5074324;28;8780;-75
2022/06/12 03:54:33;;;;;;;;;17.33;17.33;22.30;58.90;;;;;;5073919;28;8806;-74
2022/06/12 04:00:29;;;;;;;;;17.00;17.00;22.20;60.30;;;;;;5073711;28;8782;-75
2022/06/12 04:03:04;;;;;;;;;11.00;11.00;22.20;60.20;;;;;;5094041;28;8869;-76
2022/06/12 04:05:46;;;;;;;;;16.00;16.00;22.50;59.60;;;;;;5093974;28;8756;-74
2022/06/12 04:08:25;;;;;;;;;18.67;18.67;22.40;59.10;;;;;;5093995;28;8772;-74
2022/06/12 04:10:53;;;;;;;;;15.00;15.00;22.60;58.40;;;;;;5095836;28;8752;-74
2022/06/12 04:13:20;;;;;;;;;18.00;18.00;22.80;58.00;;;;;;5098010;28;9479;-75
2022/06/12 04:16:22;;;;;;;;;14.67;14.67;22.50;58.90;;;;;;5097789;28;8764;-74
2022/06/12 04:18:48;;;;;;;;;21.00;21.00;22.50;59.20;;;;;;5087971;28;8808;-75
2022/06/12 04:21:31;;;;;;;;;16.33;16.33;22.50;58.90;;;;;;5077337;28;8798;-75
2022/06/12 04:24:16;;;;;;;;;19.33;19.33;22.50;59.50;;;;;;5077981;28;8734;-76
2022/06/12 04:26:45;;;;;;;;;20.33;20.33;22.80;58.10;;;;;;5089991;28;8800;-75
2022/06/12 04:29:11;;;;;;;;;17.67;17.67;22.90;57.80;;;;;;5097817;28;8748;-75
2022/06/12 04:31:38;;;;;;;;;20.00;20.00;22.70;58.40;;;;;;5097449;28;8833;-75
2022/06/12 04:34:32;;;;;;;;;18.33;18.33;22.50;58.90;;;;;;5097493;28;8770;-75
2022/06/12 04:37:15;;;;;;;;;14.67;14.67;22.70;58.40;;;;;;5097716;28;8774;-74
2022/06/12 04:39:43;;;;;;;;;17.00;17.00;22.90;57.30;;;;;;5085422;28;9420;-74
2022/06/12 04:42:12;;;;;;;;;16.00;16.00;22.60;59.10;;;;;;5077205;28;8822;-76
2022/06/12 04:44:38;;;;;;;;;18.67;18.67;22.20;59.90;;;;;;5077051;28;8810;-75
2022/06/12 04:47:05;;;;;;;;;16.67;16.67;21.80;62.20;;;;;;5076967;28;8784;-75
2022/06/12 04:49:34;;;;;;;;;16.33;16.33;21.80;62.30;;;;;;5077196;28;8754;-75
2022/06/12 04:52:03;;;;;;;;;23.00;23.00;21.80;62.60;;;;;;5076616;28;8770;-75
2022/06/12 04:54:30;;;;;;;;;18.33;18.33;21.60;62.00;;;;;;5077045;28;8762;-76
2022/06/12 04:56:57;;;;;;;;;16.33;16.33;21.80;62.80;;;;;;5076724;28;8790;-75
2022/06/12 04:59:23;;;;;;;;;15.67;15.67;22.00;61.90;;;;;;5077062;28;8866;-75
2022/06/12 05:01:49;;;;;;;;;20.33;20.33;22.00;62.20;;;;;;5076638;28;8817;-76
2022/06/12 05:04:18;;;;;;;;;17.67;17.67;22.40;61.50;;;;;;5076558;28;8851;-76
2022/06/12 05:06:45;;;;;;;;;15.67;15.67;22.50;61.30;;;;;;5076894;28;9415;-75
2022/06/12 05:09:13;;;;;;;;;18.33;18.33;22.00;61.70;;;;;;5076782;28;9616;-75
2022/06/12 05:11:40;;;;;;;;;21.00;21.00;22.20;62.00;;;;;;5076434;28;8844;-74
2022/06/12 05:14:06;;;;;;;;;21.33;21.33;22.20;61.60;;;;;;5076718;28;8762;-75
2022/06/12 05:16:46;;;;;;;;;19.00;19.00;22.20;61.30;;;;;;5076483;28;9477;-75
2022/06/12 05:19:16;;;;;;;;;18.67;18.67;22.20;61.30;;;;;;5065853;28;8792;-75
2022/06/12 05:21:43;;;;;;;;;16.00;16.00;21.90;62.20;;;;;;5096111;28;8826;-75
2022/06/12 05:24:09;;;;;;;;;22.00;20.67;21.90;62.50;;;;;;5096893;28;8732;-76
2022/06/12 05:26:37;;;;;;;;;19.33;19.33;22.20;62.40;;;;;;5096710;28;8829;-74
2022/06/12 05:29:06;;;;;;;;;18.00;18.00;22.20;61.50;;;;;;5096393;28;8783;-74
2022/06/12 05:31:32;;;;;;;;;18.33;18.33;22.10;61.30;;;;;;5096389;28;8860;-75
2022/06/12 05:33:58;;;;;;;;;18.67;18.67;21.90;61.60;;;;;;5096509;28;8788;-75
2022/06/12 05:36:25;;;;;;;;;19.67;19.67;22.10;61.80;;;;;;5096293;28;8740;-75
2022/06/12 05:38:52;;;;;;;;;22.00;22.00;22.40;61.80;;;;;;5078251;28;8780;-75
2022/06/12 05:41:18;;;;;;;;;14.67;14.67;22.60;61.20;;;;;;5096364;28;8866;-74
2022/06/12 05:43:44;;;;;;;;;21.00;21.00;22.50;59.60;;;;;;5096150;28;8756;-76
2022/06/12 05:46:12;;;;;;;;;10.00;10.00;22.40;60.60;;;;;;5096137;28;8748;-75
2022/06/12 05:48:39;;;;;;;;;17.33;17.33;22.60;59.60;;;;;;5096232;28;9449;-74
2022/06/12 05:51:05;;;;;;;;;21.00;21.00;22.50;60.70;;;;;;5095948;28;8748;-75
2022/06/12 05:53:33;;;;;;;;;18.67;18.67;22.70;60.30;;;;;;5089117;28;8776;-74
2022/06/12 05:56:00;;;;;;;;;21.00;21.00;22.70;59.60;;;;;;5077607;28;8871;-75
2022/06/12 05:58:28;;;;;;;;;20.33;20.33;22.80;59.70;;;;;;5093503;28;8783;-75
2022/06/12 06:00:54;;;;;;;;;18.00;18.00;22.80;59.80;;;;;;5095623;28;8764;-74
2022/06/12 06:03:20;;;;;;;;;17.67;17.67;22.60;60.50;;;;;;5095670;28;8790;-75
2022/06/12 06:05:48;;;;;;;;;18.33;18.33;22.80;60.40;;;;;;5095653;28;8783;-75
2022/06/12 06:08:16;;;;;;;;;18.67;18.67;22.90;59.70;;;;;;5095604;28;8748;-75
2022/06/12 06:10:42;;;;;;;;;13.33;13.33;22.90;59.70;;;;;;5095695;28;8767;-75
2022/06/12 06:13:09;;;;;;;;;18.67;18.67;22.90;59.50;;;;;;5095526;28;8894;-75
2022/06/12 06:15:37;;;;;;;;;23.00;23.00;22.90;59.50;;;;;;5095468;28;8756;-76
2022/06/12 06:18:03;;;;;;;;;21.00;21.00;23.10;59.30;;;;;;5091571;28;8829;-75
2022/06/12 06:20:32;;;;;;;;;19.00;19.00;23.20;59.40;;;;;;5074969;28;8766;-76
2022/06/12 06:22:59;;;;;;;;;20.00;20.00;23.70;57.80;;;;;;5075192;28;8841;-75
2022/06/12 06:25:27;;;;;;;;;21.33;21.33;23.60;58.00;;;;;;5075000;28;8868;-72
2022/06/12 06:27:54;;;;;;;;;21.00;21.00;23.80;57.80;;;;;;5075637;28;8812;-76
2022/06/12 06:30:21;;;;;;;;;19.33;19.33;23.90;57.10;;;;;;5075050;28;8751;-76
2022/06/12 06:32:47;;;;;;;;;20.33;20.33;24.00;57.50;;;;;;5074234;28;8781;-74
2022/06/12 06:35:14;;;;;;;;;19.33;19.33;24.20;57.10;;;;;;5074811;28;8870;-74
2022/06/12 06:37:40;;;;;;;;;20.67;20.67;24.30;56.70;;;;;;5074928;28;8784;-75
2022/06/12 06:40:09;;;;;;;;;25.00;23.67;24.50;56.10;;;;;;5074686;28;8762;-74
2022/06/12 06:42:35;;;;;;;;;20.33;20.33;24.80;55.30;;;;;;5074572;28;8797;-74
2022/06/12 06:47:45;;;;;;;;;23.67;23.67;25.10;52.40;;;;;;5082850;28;8736;-74
2022/06/12 06:50:14;;;;;;;;;18.67;18.67;24.90;52.30;;;;;;5084425;28;8770;-77
2022/06/12 06:52:40;;;;;;;;;22.00;22.00;24.20;54.00;;;;;;5082602;28;8777;-75
2022/06/12 06:55:08;;;;;;;;;18.67;18.67;24.20;55.10;;;;;;5083621;28;8786;-72
2022/06/12 06:57:40;;;;;;;;;15.33;15.33;23.80;55.00;;;;;;5076926;28;8801;-73
2022/06/12 07:00:09;;;;;;;;;28.00;28.00;23.90;55.50;;;;;;5083639;28;8798;-76
2022/06/12 07:02:35;;;;;;;;;15.33;15.33;24.20;55.20;;;;;;5089242;28;8910;-73
2022/06/12 07:05:01;;;;;;;;;23.67;23.67;24.20;55.20;;;;;;5084096;28;8863;-73
2022/06/12 07:07:27;;;;;;;;;20.67;20.67;24.80;54.20;;;;;;5074275;28;8758;-77
2022/06/12 07:09:52;;;;;;;;;20.00;20.00;25.10;52.80;;;;;;5078791;28;8789;-75
2022/06/12 07:12:18;;;;;;;;;21.00;21.00;25.20;52.10;;;;;;5085689;28;8868;-76
2022/06/12 07:14:44;;;;;;;;;21.33;21.33;25.30;51.80;;;;;;5085509;28;8756;-76
2022/06/12 07:17:11;;;;;;;;;23.00;23.00;25.50;51.00;;;;;;5094325;28;8791;-76
2022/06/12 07:19:38;;;;;;;;;21.67;21.67;25.30;51.30;;;;;;5094295;28;8763;-77
2022/06/12 07:22:05;;;;;;;;;22.00;22.00;25.50;51.80;;;;;;5076296;28;8808;-78
2022/06/12 07:24:32;;;;;;;;;21.00;21.00;25.70;51.60;;;;;;5057110;28;8766;-77
2022/06/12 07:26:57;;;;;;;;;19.67;19.67;25.10;51.20;;;;;;5077370;28;8816;-76
2022/06/12 07:29:24;;;;;;;;;18.67;18.67;25.00;52.60;;;;;;5087931;28;8772;-77
2022/06/12 07:31:50;;;;;;;;;23.00;23.00;24.80;53.20;;;;;;5090505;28;8748;-76
2022/06/12 07:34:18;;;;;;;;;19.33;19.33;24.80;53.60;;;;;;5088747;28;8782;-78
2022/06/12 07:36:47;;;;;;;;;21.00;21.00;25.10;53.40;;;;;;5088893;28;8770;-76
2022/06/12 07:39:18;;;;;;;;;23.00;23.00;25.30;52.80;;;;;;5075630;28;8756;-79
2022/06/12 07:41:47;;;;;;;;;20.33;20.33;25.60;52.60;;;;;;5091025;28;8818;-77
2022/06/12 07:44:15;;;;;;;;;19.67;19.67;25.90;51.60;;;;;;5089174;28;8748;-77
2022/06/12 07:46:41;;;;;;;;;20.33;20.33;25.70;50.70;;;;;;5093684;28;8799;-78
2022/06/12 07:49:07;;;;;;;;;20.33;20.33;25.70;51.00;;;;;;5092469;28;9386;-78
2022/06/12 07:51:33;;;;;;;;;17.67;17.67;25.90;50.60;;;;;;5096917;28;8829;-79
2022/06/12 07:53:59;;;;;;;;;18.67;18.67;25.90;51.00;;;;;;5091800;28;8776;-77
2022/06/12 07:56:25;;;;;;;;;21.33;21.33;25.70;51.60;;;;;;5092498;28;8869;-76
2022/06/12 07:58:51;;;;;;;;;19.67;19.67;25.80;50.80;;;;;;5096776;28;8756;-76
2022/06/12 08:01:21;;;;;;;;;13.00;13.00;25.60;50.50;;;;;;5096869;28;8770;-81
2022/06/12 08:03:48;;;;;;;;;20.00;20.00;25.30;51.70;;;;;;5096922;28;8752;-75
2022/06/12 08:06:14;;;;;;;;;18.67;18.67;25.00;53.70;;;;;;5095561;28;8764;-76
2022/06/12 08:08:41;;;;;;;;;19.00;19.00;25.40;53.40;;;;;;5088295;28;8861;-77
2022/06/12 08:11:07;;;;;;;;;22.00;22.00;26.00;51.90;;;;;;5091476;28;8776;-75
2022/06/12 08:13:33;;;;;;;;;17.00;17.00;26.00;51.20;;;;;;5072568;28;9419;-78
2022/06/12 08:16:00;;;;;;;;;12.00;12.00;26.00;52.60;;;;;;5093067;28;9417;-77
2022/06/12 08:18:27;;;;;;;;;15.67;15.67;26.00;51.00;;;;;;5093048;28;8875;-77
2022/06/12 08:20:58;;;;;;;;;18.33;18.33;26.30;51.20;;;;;;5090513;28;8760;-74
2022/06/12 08:23:33;;;;;;;;;16.33;16.33;26.30;50.80;;;;;;5096070;28;8803;-75
2022/06/12 08:26:18;;;;;;;;;15.67;15.67;26.20;50.30;;;;;;5095897;28;8804;-74
2022/06/12 08:28:56;;;;;;;;;20.33;20.33;26.50;50.30;;;;;;5094092;28;8764;-77
2022/06/12 08:31:25;;;;;;;;;19.00;19.00;26.80;49.40;;;;;;5096119;28;8764;-75
2022/06/12 08:33:55;;;;;;;;;18.00;18.00;26.80;49.10;;;;;;5095828;28;9512;-76
2022/06/12 08:36:22;;;;;;;;;19.67;19.67;26.80;48.70;;;;;;5096185;28;8811;-77
2022/06/12 08:38:48;;;;;;;;;16.67;16.67;26.60;49.50;;;;;;5089800;28;8912;-77
2022/06/12 08:41:38;;;;;;;;;17.33;17.33;26.80;50.30;;;;;;5095550;28;11450;-76
2022/06/12 08:44:12;;;;;;;;;18.00;18.00;27.20;48.80;;;;;;5095827;28;8759;-76
2022/06/12 08:47:01;;;;;;;;;15.33;15.33;27.60;47.50;;;;;;5096018;28;8780;-76
2022/06/12 08:49:27;;;;;;;;;17.67;17.67;27.40;47.00;;;;;;5084927;28;11476;-75
2022/06/12 08:52:08;;;;;;;;;19.33;19.33;27.70;46.50;;;;;;5095867;28;8772;-75
2022/06/12 08:54:42;;;;;;;;;18.00;18.00;27.40;46.80;;;;;;5094084;28;8748;-76
2022/06/12 08:57:14;;;;;;;;;20.00;20.00;27.60;47.30;;;;;;5092830;28;8800;-76
2022/06/12 08:59:56;;;;;;;;;17.00;17.00;27.00;47.60;;;;;;5095787;28;8748;-76
2022/06/12 09:02:30;;;;;;;;;15.00;15.00;26.70;49.10;;;;;;5090720;28;12094;-75
2022/06/12 09:04:57;;;;;;;;;13.67;13.67;26.90;48.20;;;;;;5091235;28;12156;-77
2022/06/12 09:07:38;;;;;;;;;21.67;21.67;27.00;48.70;;;;;;5094462;28;11395;-73
2022/06/12 09:10:17;;;;;;;;;18.67;18.67;27.20;48.20;;;;;;5076170;28;9503;-76
2022/06/12 09:12:50;;;;;;;;;15.33;15.33;26.90;48.40;;;;;;5087137;28;8780;-78
2022/06/12 09:15:21;;;;;;;;;17.67;17.67;27.30;47.60;;;;;;5091344;28;8754;-77
2022/06/12 09:18:22;;;;;;;;;19.67;19.67;27.30;47.70;;;;;;5091351;28;8944;-77
2022/06/12 09:21:03;;;;;;;;;14.67;14.67;26.90;47.20;;;;;;5088464;28;8782;-74
2022/06/12 09:23:31;;;;;;;;;19.00;19.00;26.40;49.40;;;;;;5079810;28;8813;-77
2022/06/12 09:26:15;;;;;;;;;15.33;15.33;26.80;49.10;;;;;;5085433;28;8785;-76
2022/06/12 09:29:15;;;;;;;;;16.33;16.33;27.40;47.90;;;;;;5092786;28;11436;-75
2022/06/12 09:32:15;;;;;;;;;16.67;16.67;27.80;47.50;;;;;;5096657;28;8772;-76
2022/06/12 09:34:55;;;;;;;;;17.33;17.33;27.80;45.60;;;;;;5077438;28;9408;-74
2022/06/12 09:40:46;;;;;;;;;16.67;16.67;28.10;45.00;;;;;;5075963;28;11438;-76
2022/06/12 09:43:33;;;;;;;;;15.00;15.00;28.00;45.50;;;;;;5083116;28;11509;-77
2022/06/12 09:46:33;;;;;;;;;20.00;20.00;28.70;45.30;;;;;;5090702;28;11477;-70
2022/06/12 09:49:08;;;;;;;;;18.00;18.00;29.50;44.30;;;;;;5095616;28;11440;-74
2022/06/12 09:51:33;;;;;;;;;16.00;16.00;29.50;43.10;;;;;;5075147;28;11651;-70
2022/06/12 09:54:18;;;;;;;;;16.67;16.67;29.70;42.70;;;;;;5079923;28;11569;-71
2022/06/12 09:57:23;;;;;;;;;15.00;15.00;29.70;42.30;;;;;;5084201;28;8821;-72
2022/06/12 10:00:03;;;;;;;;;12.00;12.00;29.10;42.30;;;;;;5073425;28;11498;-71
2022/06/12 10:02:51;;;;;;;;;18.00;18.00;28.40;43.90;;;;;;5088408;28;11465;-71
2022/06/12 10:05:28;;;;;;;;;20.00;20.00;29.10;43.40;;;;;;5081042;28;11460;-74
2022/06/12 10:08:04;;;;;;;;;18.00;18.00;29.40;43.50;;;;;;5078571;28;11465;-72
2022/06/12 10:10:41;;;;;;;;;19.00;19.00;30.00;43.00;;;;;;5084520;28;11449;-74
2022/06/12 10:13:13;;;;;;;;;16.67;16.67;30.60;41.00;;;;;;5094246;28;11533;-74
2022/06/12 10:15:52;;;;;;;;;17.00;17.00;30.10;40.60;;;;;;5089758;28;12106;-74
2022/06/12 10:18:27;;;;;;;;;17.33;17.33;29.70;41.70;;;;;;5089243;28;11566;-73
2022/06/12 10:21:00;;;;;;;;;20.33;20.33;29.80;41.60;;;;;;5094135;28;11423;-74
2022/06/12 10:23:26;;;;;;;;;17.00;17.00;30.10;42.00;;;;;;5090701;28;8792;-77
2022/06/12 10:25:55;;;;;;;;;15.00;15.00;30.80;41.70;;;;;;5091985;28;11447;-73
2022/06/12 10:28:31;;;;;;;;;18.33;18.33;31.10;39.60;;;;;;5082718;28;8804;-73
2022/06/12 10:31:10;;;;;;;;;21.00;21.00;31.00;39.10;;;;;;5075003;28;11458;-72
2022/06/12 10:33:41;;;;;;;;;14.33;14.33;31.50;39.70;;;;;;5110861;28;11449;-71
2022/06/12 10:36:40;;;;;;;;;19.33;19.33;31.90;38.80;;;;;;5088994;28;12312;-72
2022/06/12 10:39:20;;;;;;;;;16.33;16.33;32.40;37.00;;;;;;5004978;28;11518;-72
2022/06/12 10:41:53;;;;;;;;;17.00;17.00;32.50;37.20;;;;;;5004882;28;11603;-75
2022/06/12 10:44:44;;;;;;;;;17.33;17.33;32.90;37.90;;;;;;5012099;28;12270;-79
2022/06/12 10:47:44;;;;;;;;;18.00;18.00;32.30;37.30;;;;;;5010445;28;12185;-78
2022/06/12 10:50:13;;;;;;;;;18.00;18.00;33.00;36.50;;;;;;4997997;28;11499;-73
2022/06/12 10:52:50;;;;;;;;;16.33;16.33;33.50;36.50;;;;;;5011418;28;12251;-73
2022/06/12 10:55:19;;;;;;;;;17.00;17.00;33.70;35.80;;;;;;5011640;28;11481;-74
2022/06/12 10:58:28;;;;;;;;;15.67;15.67;33.80;36.70;;;;;;5011521;28;12208;-74
2022/06/12 11:01:04;;;;;;;;;18.00;18.00;33.90;35.50;;;;;;4975896;28;11482;-73
2022/06/12 11:03:47;;;;;;;;;15.33;15.33;33.80;35.40;;;;;;5029250;28;12142;-75
2022/06/12 11:06:18;;;;;;;;;15.00;15.00;33.80;34.30;;;;;;5032118;28;11446;-74
2022/06/12 11:08:57;;;;;;;;;18.67;18.67;34.00;34.30;;;;;;5032311;28;12099;-73
2022/06/12 11:11:44;;;;;;;;;18.00;18.00;33.90;35.00;;;;;;5032327;28;11462;-73
2022/06/12 11:14:19;;;;;;;;;15.25;15.25;33.40;34.20;;;;;;5055946;28;11449;-75
2022/06/12 11:17:12;;;;;;;;;17.67;17.67;33.80;35.00;;;;;;5096713;28;11443;-73
2022/06/12 11:20:15;;;;;;;;;15.33;15.33;33.20;34.80;;;;;;5084638;28;11478;-80
2022/06/12 11:23:04;;;;;;;;;17.00;17.00;33.40;34.60;;;;;;5074030;28;11564;-74
2022/06/12 11:25:32;;;;;;;;;17.67;17.67;33.00;35.50;;;;;;5056304;28;11493;-74
2022/06/12 11:28:04;;;;;;;;;16.75;16.75;33.70;34.90;;;;;;5082189;28;11642;-74
2022/06/12 11:30:33;;;;;;;;;12.67;12.67;34.30;34.30;;;;;;5093843;28;11503;-74
2022/06/12 11:33:25;;;;;;;;;18.33;18.33;34.20;33.90;;;;;;5094319;28;11516;-74
2022/06/12 11:36:02;;;;;;;;;14.50;14.50;34.40;33.40;;;;;;5089961;28;11471;-74
2022/06/12 11:38:40;;;;;;;;;16.00;16.00;35.10;32.90;;;;;;5094069;28;11456;-74
2022/06/12 11:41:57;;;;;;;;;15.75;15.75;34.70;33.00;;;;;;5094135;28;11513;-74
2022/06/12 11:44:41;;;;;;;;;11.33;11.33;34.30;33.10;;;;;;5012077;28;11482;-74
2022/06/12 11:47:18;;;;;;;;;17.00;17.00;34.20;33.20;;;;;;5087330;28;11459;-74
2022/06/12 11:49:49;;;;;;;;;15.33;15.33;34.50;32.40;;;;;;5093920;28;11543;-74
2022/06/12 11:52:33;;;;;;;;;16.50;16.00;34.60;33.10;;;;;;5093875;28;11552;-74
2022/06/12 11:55:33;;;;;;;;;15.75;15.75;35.00;31.70;;;;;;5094046;28;11454;-74
2022/06/12 11:58:23;;;;;;;;;15.33;15.33;35.10;32.30;;;;;;5094314;28;11468;-74
2022/06/12 12:01:09;;;;;;;;;17.33;17.33;34.70;32.40;;;;;;5093958;28;11452;-74
2022/06/12 12:04:04;;;;;;;;;14.75;14.75;33.90;33.30;;;;;;5094286;28;11471;-74
2022/06/12 12:06:37;;;;;;;;;16.75;16.75;34.50;32.80;;;;;;5093911;28;11442;-74
2022/06/12 12:09:12;;;;;;;;;13.25;13.25;34.90;31.90;;;;;;5094251;28;11555;-72
2022/06/12 12:11:49;;;;;;;;;16.00;16.00;34.20;32.40;;;;;;5094210;28;11444;-73
2022/06/12 12:14:29;;;;;;;;;13.75;13.75;33.80;33.40;;;;;;5093924;28;11404;-72
2022/06/12 12:17:00;;;;;;;;;14.00;14.00;34.60;32.80;;;;;;5093654;28;11411;-72
2022/06/12 12:19:35;;;;;;;;;14.50;14.50;34.60;32.80;;;;;;5093533;28;11502;-72
2022/06/12 12:22:09;;;;;;;;;15.00;15.00;34.60;32.00;;;;;;5093785;28;11423;-72
2022/06/12 12:24:59;;;;;;;;;13.50;13.50;34.50;32.00;;;;;;5093876;28;11437;-72
2022/06/12 12:27:43;;;;;;;;;11.50;11.50;35.00;32.30;;;;;;5093960;28;11450;-73
2022/06/12 12:30:24;;;;;;;;;11.75;11.75;34.80;30.90;;;;;;5093647;28;11450;-72
2022/06/12 12:32:57;;;;;;;;;14.00;14.00;34.40;30.90;;;;;;5096907;28;11505;-72
2022/06/12 12:41:16;;;;;;;;;18.33;18.33;35.70;31.80;;;;;;5097362;28;11388;-72
2022/06/12 12:43:49;;;;;;;;;13.00;13.00;35.20;31.00;;;;;;5097336;28;12347;-72
2022/06/12 12:46:15;;;;;;;;;12.00;12.00;35.30;31.50;;;;;;5097366;28;11560;-72
2022/06/12 12:48:45;;;;;;;;;18.00;18.00;35.10;31.30;;;;;;5097062;28;11414;-72
2022/06/12 12:51:23;;;;;;;;;12.00;12.00;34.90;31.70;;;;;;5096962;28;11446;-72
2022/06/12 12:53:48;;;;;;;;;15.75;15.75;34.40;31.80;;;;;;5079324;28;11572;-74
2022/06/12 12:56:26;;;;;;;;;15.75;15.75;34.90;31.40;;;;;;5096853;28;11575;-72
2022/06/12 12:58:59;;;;;;;;;11.50;11.50;35.20;31.80;;;;;;5096775;28;8774;-72
2022/06/12 13:01:27;;;;;;;;;13.50;13.50;35.20;30.20;;;;;;5096757;28;11406;-72
2022/06/12 13:04:12;;;;;;;;;15.25;15.25;34.80;31.00;;;;;;5096684;28;11445;-72
2022/06/12 13:07:03;;;;;;;;;15.75;15.75;34.40;31.50;;;;;;5096808;28;11450;-72
2022/06/12 13:09:41;;;;;;;;;14.50;14.50;34.10;32.00;;;;;;5096750;28;11438;-72
2022/06/12 13:12:15;;;;;;;;;15.25;15.25;34.00;31.90;;;;;;5096810;28;11501;-72
2022/06/12 13:15:09;;;;;;;;;14.00;14.00;33.70;32.50;;;;;;5096799;28;11424;-72
2022/06/12 13:18:02;;;;;;;;;13.75;13.75;33.70;33.10;;;;;;5096524;28;11513;-72
2022/06/12 13:20:43;;;;;;;;;13.00;13.00;33.70;32.90;;;;;;5096419;28;11457;-72
2022/06/12 13:23:44;;;;;;;;;13.25;13.25;34.30;32.90;;;;;;5096380;28;11486;-72
2022/06/12 13:26:14;;;;;;;;;14.50;14.50;35.00;31.70;;;;;;5096291;28;11452;-72
2022/06/12 13:28:40;;;;;;;;;15.00;15.00;35.20;31.60;;;;;;5096296;28;11413;-72
2022/06/12 13:31:18;;;;;;;;;15.50;15.50;35.60;30.90;;;;;;5096038;28;11444;-72
2022/06/12 13:33:52;;;;;;;;;14.75;14.75;35.80;29.70;;;;;;5096357;28;11421;-72